sensor_id;sensor_type;location;lat;lon;timestamp;pressure;altitude;pressure_sealevel;temperature;humidity
9257;BME280;4665;51.368;6.782;2023-04-08T00:00:03;101928.19;;;8.08;100.00
9257;BME280;4665;51.368;6.782;2023-04-08T00:02:30;101937.59;;;8.12;100.00
9257;BME280;4665;51.368;6.782;2023-04-08T00:04:56;101927.22;;;8.09;100.00
9257;BME280;4665;51.368;6.782;2023-04-08T00:07:21;101935.94;;;8.11;100.00
9257;BME280;4665;51.368;6.782;2023-04-08T00:09:48;101931.34;;;8.13;100.00
9257;BME280;4665;51.368;6.782;2023-04-08T00:12:13;101942.91;;;8.12;100.00
9257;BME280;4665;51.368;6.782;2023-04-08T00:14:38;101937.59;;;8.12;100.00
9257;BME280;4665;51.368;6.782;2023-04-08T00:17:05;101948.03;;;8.15;100.00
9257;BME280;4665;51.368;6.782;2023-04-08T00:19:31;101939.41;;;8.11;100.00
9257;BME280;4665;51.368;6.782;2023-04-08T00:21:57;101941.97;;;8.13;100.00
9257;BME280;4665;51.368;6.782;2023-04-08T00:24:23;101939.31;;;8.13;100.00
9257;BME280;4665;51.368;6.782;2023-04-08T00:26:48;101936.66;;;8.13;100.00
9257;BME280;4665;51.368;6.782;2023-04-08T00:29:14;101937.50;;;8.13;100.00
9257;BME280;4665;51.368;6.782;2023-04-08T00:31:40;101937.59;;;8.12;100.00
9257;BME280;4665;51.368;6.782;2023-04-08T00:34:06;101929.13;;;8.07;100.00
9257;BME280;4665;51.368;6.782;2023-04-08T00:36:31;101941.00;;;8.14;100.00
9257;BME280;4665;51.368;6.782;2023-04-08T00:38:57;101930.84;;;8.08;100.00
9257;BME280;4665;51.368;6.782;2023-04-08T00:41:23;101935.28;;;8.07;100.00
9257;BME280;4665;51.368;6.782;2023-04-08T00:43:48;101939.75;;;8.07;100.00
9257;BME280;4665;51.368;6.782;2023-04-08T00:46:14;101942.63;;;8.04;100.00
9257;BME280;4665;51.368;6.782;2023-04-08T00:48:40;101949.63;;;8.05;100.00
9257;BME280;4665;51.368;6.782;2023-04-08T00:51:06;101954.00;;;8.06;100.00
9257;BME280;4665;51.368;6.782;2023-04-08T00:53:32;101956.66;;;8.06;100.00
9257;BME280;4665;51.368;6.782;2023-04-08T00:55:57;101955.78;;;8.05;100.00
9257;BME280;4665;51.368;6.782;2023-04-08T00:58:26;101954.00;;;8.06;100.00
9257;BME280;4665;51.368;6.782;2023-04-08T01:00:58;101957.72;;;8.03;100.00
9257;BME280;4665;51.368;6.782;2023-04-08T01:06:14;101954.41;;;7.99;100.00
9257;BME280;4665;51.368;6.782;2023-04-08T01:08:42;101959.31;;;8.06;100.00
9257;BME280;4665;51.368;6.782;2023-04-08T01:11:10;101970.84;;;8.05;100.00
9257;BME280;4665;51.368;6.782;2023-04-08T01:13:39;101966.72;;;8.00;100.00
9257;BME280;4665;51.368;6.782;2023-04-08T01:16:09;101956.56;;;7.94;100.00
9257;BME280;4665;51.368;6.782;2023-04-08T01:18:36;101963.03;;;7.90;100.00
9257;BME280;4665;51.368;6.782;2023-04-08T01:21:03;101964.84;;;7.90;100.00
9257;BME280;4665;51.368;6.782;2023-04-08T01:26:28;101963.06;;;7.77;100.00
9257;BME280;4665;51.368;6.782;2023-04-08T01:28:56;101963.91;;;7.78;100.00
9257;BME280;4665;51.368;6.782;2023-04-08T01:31:24;101962.09;;;7.78;100.00
9257;BME280;4665;51.368;6.782;2023-04-08T01:33:50;101962.09;;;7.78;100.00
9257;BME280;4665;51.368;6.782;2023-04-08T01:36:17;101967.50;;;7.77;100.00
9257;BME280;4665;51.368;6.782;2023-04-08T01:38:45;101968.56;;;7.74;100.00
9257;BME280;4665;51.368;6.782;2023-04-08T01:41:10;101964.84;;;7.77;100.00
9257;BME280;4665;51.368;6.782;2023-04-08T01:43:38;101971.03;;;7.77;100.00
9257;BME280;4665;51.368;6.782;2023-04-08T01:46:06;101965.91;;;7.74;100.00
9257;BME280;4665;51.368;6.782;2023-04-08T01:48:33;101964.09;;;7.75;100.00
9257;BME280;4665;51.368;6.782;2023-04-08T01:51:00;101973.88;;;7.74;100.00
9257;BME280;4665;51.368;6.782;2023-04-08T01:53:26;101963.38;;;7.73;100.00
9257;BME280;4665;51.368;6.782;2023-04-08T01:55:55;101966.97;;;7.72;100.00
9257;BME280;4665;51.368;6.782;2023-04-08T01:58:21;101966.97;;;7.72;100.00
9257;BME280;4665;51.368;6.782;2023-04-08T02:00:50;101972.28;;;7.72;100.00
9257;BME280;4665;51.368;6.782;2023-04-08T02:03:18;101962.00;;;7.67;100.00
9257;BME280;4665;51.368;6.782;2023-04-08T02:05:48;101969.94;;;7.67;100.00
9257;BME280;4665;51.368;6.782;2023-04-08T02:08:13;101967.41;;;7.66;100.00
9257;BME280;4665;51.368;6.782;2023-04-08T02:10:38;101969.19;;;7.65;100.00
9257;BME280;4665;51.368;6.782;2023-04-08T02:13:05;101966.78;;;7.62;100.00
9257;BME280;4665;51.368;6.782;2023-04-08T02:15:33;101968.47;;;7.63;100.00
9257;BME280;4665;51.368;6.782;2023-04-08T02:18:07;101967.41;;;7.66;100.00
9257;BME280;4665;51.368;6.782;2023-04-08T02:20:38;101967.63;;;7.63;100.00
9257;BME280;4665;51.368;6.782;2023-04-08T02:23:19;101962.41;;;7.61;100.00
9257;BME280;4665;51.368;6.782;2023-04-08T02:25:46;101968.78;;;7.58;100.00
9257;BME280;4665;51.368;6.782;2023-04-08T02:28:13;101969.66;;;7.59;100.00
9257;BME280;4665;51.368;6.782;2023-04-08T02:30:47;101973.34;;;7.56;100.00
9257;BME280;4665;51.368;6.782;2023-04-08T02:33:17;101980.31;;;7.45;100.00
9257;BME280;4665;51.368;6.782;2023-04-08T02:35:44;101978.00;;;7.40;100.00
9257;BME280;4665;51.368;6.782;2023-04-08T02:38:10;101987.97;;;7.36;100.00
9257;BME280;4665;51.368;6.782;2023-04-08T02:40:36;101979.25;;;7.22;100.00
9257;BME280;4665;51.368;6.782;2023-04-08T02:43:01;101980.97;;;7.23;100.00
9257;BME280;4665;51.368;6.782;2023-04-08T02:45:30;101973.84;;;7.23;100.00
9257;BME280;4665;51.368;6.782;2023-04-08T02:47:56;101976.50;;;7.23;100.00
9257;BME280;4665;51.368;6.782;2023-04-08T02:50:22;101978.31;;;7.23;100.00
9257;BME280;4665;51.368;6.782;2023-04-08T02:52:48;101975.66;;;7.23;100.00
9257;BME280;4665;51.368;6.782;2023-04-08T02:55:13;101980.22;;;7.21;100.00
9257;BME280;4665;51.368;6.782;2023-04-08T02:57:41;101977.97;;;7.14;100.00
9257;BME280;4665;51.368;6.782;2023-04-08T03:00:08;101977.84;;;7.03;100.00
9257;BME280;4665;51.368;6.782;2023-04-08T03:02:34;101983.03;;;7.05;100.00
9257;BME280;4665;51.368;6.782;2023-04-08T03:04:59;101977.28;;;6.98;100.00
9257;BME280;4665;51.368;6.782;2023-04-08T03:07:25;101976.84;;;6.91;100.00
9257;BME280;4665;51.368;6.782;2023-04-08T03:09:50;101977.06;;;6.88;100.00
9257;BME280;4665;51.368;6.782;2023-04-08T03:12:16;101981.59;;;6.86;100.00
9257;BME280;4665;51.368;6.782;2023-04-08T03:14:41;101988.34;;;6.78;100.00
9257;BME280;4665;51.368;6.782;2023-04-08T03:17:07;101987.63;;;6.76;100.00
9257;BME280;4665;51.368;6.782;2023-04-08T03:19:32;101986.13;;;6.71;100.00
9257;BME280;4665;51.368;6.782;2023-04-08T03:21:58;101984.59;;;6.67;100.00
9257;BME280;4665;51.368;6.782;2023-04-08T03:24:23;101977.25;;;6.58;100.00
9257;BME280;4665;51.368;6.782;2023-04-08T03:26:48;101973.31;;;6.51;100.00
9257;BME280;4665;51.368;6.782;2023-04-08T03:29:14;101978.16;;;6.44;100.00
9257;BME280;4665;51.368;6.782;2023-04-08T03:31:39;101979.97;;;6.44;100.00
9257;BME280;4665;51.368;6.782;2023-04-08T03:34:05;101983.53;;;6.43;100.00
9257;BME280;4665;51.368;6.782;2023-04-08T03:36:30;101980.47;;;6.36;100.00
9257;BME280;4665;51.368;6.782;2023-04-08T03:38:56;101978.28;;;6.28;100.00
9257;BME280;4665;51.368;6.782;2023-04-08T03:41:21;101985.56;;;6.25;100.00
9257;BME280;4665;51.368;6.782;2023-04-08T03:43:47;101987.84;;;6.17;100.00
9257;BME280;4665;51.368;6.782;2023-04-08T03:46:12;101976.25;;;6.05;100.00
9257;BME280;4665;51.368;6.782;2023-04-08T03:48:37;101986.44;;;6.11;100.00
9257;BME280;4665;51.368;6.782;2023-04-08T03:51:03;101994.47;;;6.09;100.00
9257;BME280;4665;51.368;6.782;2023-04-08T03:53:28;101988.91;;;6.00;100.00
9257;BME280;4665;51.368;6.782;2023-04-08T03:55:55;101997.31;;;6.06;100.00
9257;BME280;4665;51.368;6.782;2023-04-08T03:58:21;102001.00;;;6.04;100.00
9257;BME280;4665;51.368;6.782;2023-04-08T04:00:46;101987.56;;;5.93;100.00
9257;BME280;4665;51.368;6.782;2023-04-08T04:03:11;102008.56;;;5.96;100.00
9257;BME280;4665;51.368;6.782;2023-04-08T04:05:38;101992.19;;;5.89;100.00
9257;BME280;4665;51.368;6.782;2023-04-08T04:08:03;102005.31;;;5.90;100.00
9257;BME280;4665;51.368;6.782;2023-04-08T04:10:29;101995.97;;;5.85;100.00
9257;BME280;4665;51.368;6.782;2023-04-08T04:12:54;102008.31;;;5.84;100.00
9257;BME280;4665;51.368;6.782;2023-04-08T04:15:20;102001.44;;;5.82;100.00
9257;BME280;4665;51.368;6.782;2023-04-08T04:17:49;101998.16;;;5.78;100.00
9257;BME280;4665;51.368;6.782;2023-04-08T04:20:16;101997.94;;;5.81;100.00
9257;BME280;4665;51.368;6.782;2023-04-08T04:22:41;102004.00;;;5.83;100.00
9257;BME280;4665;51.368;6.782;2023-04-08T04:25:07;102007.56;;;5.82;100.00
9257;BME280;4665;51.368;6.782;2023-04-08T04:27:35;102021.56;;;5.84;100.00
9257;BME280;4665;51.368;6.782;2023-04-08T04:30:02;102018.81;;;5.86;100.00
9257;BME280;4665;51.368;6.782;2023-04-08T04:32:27;102020.06;;;5.80;100.00
9257;BME280;4665;51.368;6.782;2023-04-08T04:34:53;102027.81;;;5.83;100.00
9257;BME280;4665;51.368;6.782;2023-04-08T04:37:18;102031.47;;;5.81;100.00
9257;BME280;4665;51.368;6.782;2023-04-08T04:39:44;102031.38;;;5.82;100.00
9257;BME280;4665;51.368;6.782;2023-04-08T04:42:09;102036.84;;;5.79;100.00
9257;BME280;4665;51.368;6.782;2023-04-08T04:44:35;102033.44;;;5.77;100.00
9257;BME280;4665;51.368;6.782;2023-04-08T04:47:00;102038.38;;;5.83;100.00
9257;BME280;4665;51.368;6.782;2023-04-08T04:49:26;102040.94;;;5.85;100.00
9257;BME280;4665;51.368;6.782;2023-04-08T04:51:51;102040.94;;;5.85;100.00
9257;BME280;4665;51.368;6.782;2023-04-08T04:54:16;102024.31;;;5.83;100.00
9257;BME280;4665;51.368;6.782;2023-04-08T04:56:42;102032.81;;;5.88;100.00
9257;BME280;4665;51.368;6.782;2023-04-08T04:59:07;102034.34;;;5.92;100.00
9257;BME280;4665;51.368;6.782;2023-04-08T05:01:33;102020.44;;;5.88;100.00
9257;BME280;4665;51.368;6.782;2023-04-08T05:03:58;102039.16;;;6.00;100.00
9257;BME280;4665;51.368;6.782;2023-04-08T05:06:24;102037.38;;;6.00;100.00
9257;BME280;4665;51.368;6.782;2023-04-08T05:08:51;102040.69;;;6.04;100.00
9257;BME280;4665;51.368;6.782;2023-04-08T05:11:16;102043.22;;;6.05;100.00
9257;BME280;4665;51.368;6.782;2023-04-08T05:13:46;102043.97;;;6.07;100.00
9257;BME280;4665;51.368;6.782;2023-04-08T05:16:11;102042.09;;;6.09;100.00
9257;BME280;4665;51.368;6.782;2023-04-08T05:18:37;102051.75;;;6.10;100.00
9257;BME280;4665;51.368;6.782;2023-04-08T05:21:02;102061.19;;;6.15;100.00
9257;BME280;4665;51.368;6.782;2023-04-08T05:23:27;102066.31;;;6.18;100.00
9257;BME280;4665;51.368;6.782;2023-04-08T05:25:53;102061.84;;;6.18;100.00
9257;BME280;4665;51.368;6.782;2023-04-08T05:28:19;102065.25;;;6.20;100.00
9257;BME280;4665;51.368;6.782;2023-04-08T05:30:51;102067.06;;;6.20;100.00
9257;BME280;4665;51.368;6.782;2023-04-08T05:33:16;102073.09;;;6.22;100.00
9257;BME280;4665;51.368;6.782;2023-04-08T05:35:42;102059.56;;;6.12;100.00
9257;BME280;4665;51.368;6.782;2023-04-08T05:38:08;102075.00;;;6.20;100.00
9257;BME280;4665;51.368;6.782;2023-04-08T05:40:33;102076.69;;;6.21;100.00
9257;BME280;4665;51.368;6.782;2023-04-08T05:42:59;102073.00;;;6.23;100.00
9257;BME280;4665;51.368;6.782;2023-04-08T05:45:24;102081.69;;;6.25;100.00
9257;BME280;4665;51.368;6.782;2023-04-08T05:47:49;102089.63;;;6.25;100.00
9257;BME280;4665;51.368;6.782;2023-04-08T05:50:15;102090.19;;;6.30;100.00
9257;BME280;4665;51.368;6.782;2023-04-08T05:52:41;102083.09;;;6.31;100.00
9257;BME280;4665;51.368;6.782;2023-04-08T05:55:09;102092.69;;;6.34;100.00
9257;BME280;4665;51.368;6.782;2023-04-08T05:57:34;102097.97;;;6.34;100.00
9257;BME280;4665;51.368;6.782;2023-04-08T06:00:00;102095.22;;;6.35;100.00
9257;BME280;4665;51.368;6.782;2023-04-08T06:02:25;102101.19;;;6.39;100.00
9257;BME280;4665;51.368;6.782;2023-04-08T06:04:50;102096.94;;;6.36;100.00
9257;BME280;4665;51.368;6.782;2023-04-08T06:07:16;102099.47;;;6.38;100.00
9257;BME280;4665;51.368;6.782;2023-04-08T06:09:41;102098.63;;;6.37;100.00
9257;BME280;4665;51.368;6.782;2023-04-08T06:12:07;102089.91;;;6.35;100.00
9257;BME280;4665;51.368;6.782;2023-04-08T06:14:32;102107.97;;;6.43;100.00
9257;BME280;4665;51.368;6.782;2023-04-08T06:16:57;102107.97;;;6.43;100.00
9257;BME280;4665;51.368;6.782;2023-04-08T06:19:23;102107.13;;;6.42;100.00
9257;BME280;4665;51.368;6.782;2023-04-08T06:21:49;102112.59;;;6.39;100.00
9257;BME280;4665;51.368;6.782;2023-04-08T06:24:15;102105.72;;;6.37;100.00
9257;BME280;4665;51.368;6.782;2023-04-08T06:26:41;102113.84;;;6.34;100.00
9257;BME280;4665;51.368;6.782;2023-04-08T06:29:06;102119.59;;;6.40;100.00
9257;BME280;4665;51.368;6.782;2023-04-08T06:31:32;102116.09;;;6.40;100.00
9257;BME280;4665;51.368;6.782;2023-04-08T06:33:57;102107.59;;;6.35;100.00
9257;BME280;4665;51.368;6.782;2023-04-08T06:36:23;102116.84;;;6.42;100.00
9257;BME280;4665;51.368;6.782;2023-04-08T06:38:48;102115.53;;;6.35;100.00
9257;BME280;4665;51.368;6.782;2023-04-08T06:41:13;102113.19;;;6.30;100.00
9257;BME280;4665;51.368;6.782;2023-04-08T06:43:39;102134.72;;;6.38;100.00
9257;BME280;4665;51.368;6.782;2023-04-08T06:46:04;102134.91;;;6.35;100.00
9257;BME280;4665;51.368;6.782;2023-04-08T06:48:30;102119.31;;;6.30;100.00
9257;BME280;4665;51.368;6.782;2023-04-08T06:50:56;102135.88;;;6.34;100.00
9257;BME280;4665;51.368;6.782;2023-04-08T06:53:25;102149.94;;;6.35;100.00
9257;BME280;4665;51.368;6.782;2023-04-08T06:55:51;102136.72;;;6.35;100.00
9257;BME280;4665;51.368;6.782;2023-04-08T06:58:19;102142.78;;;6.37;100.00
9257;BME280;4665;51.368;6.782;2023-04-08T07:00:44;102152.22;;;6.41;100.00
9257;BME280;4665;51.368;6.782;2023-04-08T07:03:10;102152.31;;;6.39;100.00
9257;BME280;4665;51.368;6.782;2023-04-08T07:05:36;102153.25;;;6.38;100.00
9257;BME280;4665;51.368;6.782;2023-04-08T07:08:01;102153.44;;;6.35;100.00
9257;BME280;4665;51.368;6.782;2023-04-08T07:10:27;102158.53;;;6.38;100.00
9257;BME280;4665;51.368;6.782;2023-04-08T07:12:53;102154.97;;;6.39;100.00
9257;BME280;4665;51.368;6.782;2023-04-08T07:15:18;102164.31;;;6.45;100.00
9257;BME280;4665;51.368;6.782;2023-04-08T07:17:43;102159.03;;;6.45;100.00
9257;BME280;4665;51.368;6.782;2023-04-08T07:20:09;102167.72;;;6.47;100.00
9257;BME280;4665;51.368;6.782;2023-04-08T07:22:35;102168.41;;;6.50;100.00
9257;BME280;4665;51.368;6.782;2023-04-08T07:25:00;102168.47;;;6.49;100.00
9257;BME280;4665;51.368;6.782;2023-04-08T07:27:27;102175.22;;;6.55;100.00
9257;BME280;4665;51.368;6.782;2023-04-08T07:29:52;102165.28;;;6.58;100.00
9257;BME280;4665;51.368;6.782;2023-04-08T07:32:19;102171.59;;;6.56;100.00
9257;BME280;4665;51.368;6.782;2023-04-08T07:34:46;102177.47;;;6.46;100.00
9257;BME280;4665;51.368;6.782;2023-04-08T07:37:12;102179.63;;;6.54;100.00
9257;BME280;4665;51.368;6.782;2023-04-08T07:39:37;102187.22;;;6.46;100.00
9257;BME280;4665;51.368;6.782;2023-04-08T07:42:02;102183.81;;;6.44;100.00
9257;BME280;4665;51.368;6.782;2023-04-08T07:44:28;102188.91;;;6.47;100.00
9257;BME280;4665;51.368;6.782;2023-04-08T07:46:53;102190.03;;;6.43;100.00
9257;BME280;4665;51.368;6.782;2023-04-08T07:49:19;102199.13;;;6.39;100.00
9257;BME280;4665;51.368;6.782;2023-04-08T07:51:44;102196.06;;;6.30;100.00
9257;BME280;4665;51.368;6.782;2023-04-08T07:54:10;102208.19;;;6.35;100.00
9257;BME280;4665;51.368;6.782;2023-04-08T07:56:36;102200.44;;;6.31;100.00
9257;BME280;4665;51.368;6.782;2023-04-08T07:59:05;102204.00;;;6.30;100.00
9257;BME280;4665;51.368;6.782;2023-04-08T08:01:31;102211.69;;;6.35;100.00
9257;BME280;4665;51.368;6.782;2023-04-08T08:03:59;102211.97;;;6.30;100.00
9257;BME280;4665;51.368;6.782;2023-04-08T08:06:24;102212.34;;;6.39;100.00
9257;BME280;4665;51.368;6.782;2023-04-08T08:08:52;102215.56;;;6.44;100.00
9257;BME280;4665;51.368;6.782;2023-04-08T08:11:17;102213.28;;;6.38;100.00
9257;BME280;4665;51.368;6.782;2023-04-08T08:13:43;102233.53;;;6.39;100.00
9257;BME280;4665;51.368;6.782;2023-04-08T08:16:08;102235.63;;;6.34;100.00
9257;BME280;4665;51.368;6.782;2023-04-08T08:18:36;102231.13;;;6.20;100.00
9257;BME280;4665;51.368;6.782;2023-04-08T08:21:01;102238.63;;;6.27;100.00
9257;BME280;4665;51.368;6.782;2023-04-08T08:23:34;102234.63;;;6.20;100.00
9257;BME280;4665;51.368;6.782;2023-04-08T08:26:03;102234.41;;;6.09;100.00
9257;BME280;4665;51.368;6.782;2023-04-08T08:28:31;102243.69;;;6.16;100.00
9257;BME280;4665;51.368;6.782;2023-04-08T08:30:56;102238.19;;;6.19;100.00
9257;BME280;4665;51.368;6.782;2023-04-08T08:33:22;102252.69;;;6.28;100.00
9257;BME280;4665;51.368;6.782;2023-04-08T08:35:47;102257.16;;;6.27;100.00
9257;BME280;4665;51.368;6.782;2023-04-08T08:38:13;102250.31;;;6.23;100.00
9257;BME280;4665;51.368;6.782;2023-04-08T08:41:05;102253.19;;;6.35;100.00
9257;BME280;4665;51.368;6.782;2023-04-08T08:43:31;102258.13;;;6.41;100.00
9257;BME280;4665;51.368;6.782;2023-04-08T08:45:59;102251.97;;;6.40;100.00
9257;BME280;4665;51.368;6.782;2023-04-08T08:48:25;102251.31;;;6.51;100.00
9257;BME280;4665;51.368;6.782;2023-04-08T08:50:51;102240.94;;;6.48;100.00
9257;BME280;4665;51.368;6.782;2023-04-08T08:53:17;102250.00;;;6.44;100.00
9257;BME280;4665;51.368;6.782;2023-04-08T08:55:43;102259.47;;;6.48;100.00
9257;BME280;4665;51.368;6.782;2023-04-08T08:58:09;102259.06;;;6.54;100.00
9257;BME280;4665;51.368;6.782;2023-04-08T09:00:39;102256.16;;;6.59;100.00
9257;BME280;4665;51.368;6.782;2023-04-08T09:05:47;102249.81;;;6.61;100.00
9257;BME280;4665;51.368;6.782;2023-04-08T09:08:22;102243.03;;;6.57;100.00
9257;BME280;4665;51.368;6.782;2023-04-08T09:10:48;102252.38;;;6.48;100.00
9257;BME280;4665;51.368;6.782;2023-04-08T09:13:13;102245.66;;;6.57;100.00
9257;BME280;4665;51.368;6.782;2023-04-08T09:16:05;102252.66;;;6.58;100.00
9257;BME280;4665;51.368;6.782;2023-04-08T09:18:32;102250.00;;;6.58;100.00
9257;BME280;4665;51.368;6.782;2023-04-08T09:21:02;102256.75;;;6.64;100.00
9257;BME280;4665;51.368;6.782;2023-04-08T09:23:49;102257.13;;;6.72;100.00
9257;BME280;4665;51.368;6.782;2023-04-08T09:26:20;102250.69;;;6.76;100.00
9257;BME280;4665;51.368;6.782;2023-04-08T09:29:06;102256.75;;;6.78;100.00
9257;BME280;4665;51.368;6.782;2023-04-08T09:31:36;102247.19;;;6.76;100.00
9257;BME280;4665;51.368;6.782;2023-04-08T09:34:14;102254.94;;;6.93;100.00
9257;BME280;4665;51.368;6.782;2023-04-08T09:36:42;102259.31;;;7.08;100.00
9257;BME280;4665;51.368;6.782;2023-04-08T09:39:08;102265.13;;;7.28;100.00
9257;BME280;4665;51.368;6.782;2023-04-08T09:41:36;102259.84;;;7.28;100.00
9257;BME280;4665;51.368;6.782;2023-04-08T09:44:05;102264.19;;;7.43;100.00
9257;BME280;4665;51.368;6.782;2023-04-08T09:55:01;102265.81;;;7.73;100.00
9257;BME280;4665;51.368;6.782;2023-04-08T09:58:07;102262.28;;;7.99;100.00
9257;BME280;4665;51.368;6.782;2023-04-08T10:00:37;102256.56;;;8.06;100.00
9257;BME280;4665;51.368;6.782;2023-04-08T10:05:49;102247.28;;;8.38;100.00
9257;BME280;4665;51.368;6.782;2023-04-08T10:08:17;102243.38;;;8.70;100.00
9257;BME280;4665;51.368;6.782;2023-04-08T10:10:43;102236.25;;;8.70;100.00
9257;BME280;4665;51.368;6.782;2023-04-08T10:13:08;102219.16;;;8.74;100.00
9257;BME280;4665;51.368;6.782;2023-04-08T10:15:35;102213.09;;;8.72;100.00
9257;BME280;4665;51.368;6.782;2023-04-08T10:23:07;102209.69;;;8.96;100.00
9257;BME280;4665;51.368;6.782;2023-04-08T10:25:37;102229.59;;;9.14;100.00
9257;BME280;4665;51.368;6.782;2023-04-08T10:30:45;102220.03;;;9.12;100.00
9257;BME280;4665;51.368;6.782;2023-04-08T10:33:16;102222.19;;;9.19;100.00
9257;BME280;4665;51.368;6.782;2023-04-08T10:35:46;102223.44;;;9.26;100.00
9257;BME280;4665;51.368;6.782;2023-04-08T10:38:13;102218.38;;;9.35;100.00
9257;BME280;4665;51.368;6.782;2023-04-08T10:40:39;102218.28;;;9.36;100.00
9257;BME280;4665;51.368;6.782;2023-04-08T10:43:09;102216.78;;;9.45;100.00
9257;BME280;4665;51.368;6.782;2023-04-08T10:45:36;102218.19;;;9.62;100.00
9257;BME280;4665;51.368;6.782;2023-04-08T10:50:39;102213.03;;;9.47;100.00
9257;BME280;4665;51.368;6.782;2023-04-08T10:53:09;102203.34;;;9.46;100.00
9257;BME280;4665;51.368;6.782;2023-04-08T10:55:35;102216.53;;;9.48;100.00
9257;BME280;4665;51.368;6.782;2023-04-08T10:58:05;102205.66;;;9.51;100.00
9257;BME280;4665;51.368;6.782;2023-04-08T11:00:33;102204.47;;;9.55;100.00
9257;BME280;4665;51.368;6.782;2023-04-08T11:03:10;102202.78;;;9.54;100.00
9257;BME280;4665;51.368;6.782;2023-04-08T11:05:37;102199.25;;;9.54;100.00
9257;BME280;4665;51.368;6.782;2023-04-08T11:08:04;102211.50;;;9.56;100.00
9257;BME280;4665;51.368;6.782;2023-04-08T11:10:32;102213.63;;;9.51;100.00
9257;BME280;4665;51.368;6.782;2023-04-08T11:13:00;102215.69;;;9.47;100.00
9257;BME280;4665;51.368;6.782;2023-04-08T11:15:29;102204.00;;;9.37;100.00
9257;BME280;4665;51.368;6.782;2023-04-08T11:17:55;102200.84;;;9.32;100.00
9257;BME280;4665;51.368;6.782;2023-04-08T11:20:21;102201.91;;;9.30;100.00
9257;BME280;4665;51.368;6.782;2023-04-08T11:22:47;102203.09;;;9.25;100.00
9257;BME280;4665;51.368;6.782;2023-04-08T11:25:13;102202.69;;;9.19;100.00
9257;BME280;4665;51.368;6.782;2023-04-08T11:27:39;102206.22;;;9.19;100.00
9257;BME280;4665;51.368;6.782;2023-04-08T11:30:06;102199.25;;;9.05;100.00
9257;BME280;4665;51.368;6.782;2023-04-08T11:32:33;102186.41;;;8.87;100.00
9257;BME280;4665;51.368;6.782;2023-04-08T11:35:00;102187.78;;;8.92;100.00
9257;BME280;4665;51.368;6.782;2023-04-08T11:37:35;102199.06;;;8.96;100.00
9257;BME280;4665;51.368;6.782;2023-04-08T11:40:06;102209.69;;;8.96;100.00
9257;BME280;4665;51.368;6.782;2023-04-08T11:42:32;102203.72;;;8.92;100.00
9257;BME280;4665;51.368;6.782;2023-04-08T11:44:58;102199.25;;;8.93;100.00
9257;BME280;4665;51.368;6.782;2023-04-08T11:47:31;102201.16;;;8.91;100.00
9257;BME280;4665;51.368;6.782;2023-04-08T11:49:57;102195.84;;;8.91;100.00
9257;BME280;4665;51.368;6.782;2023-04-08T11:52:45;102206.28;;;8.94;100.00
9257;BME280;4665;51.368;6.782;2023-04-08T11:55:25;102198.22;;;8.82;100.00
9257;BME280;4665;51.368;6.782;2023-04-08T11:57:50;102211.38;;;8.84;100.00
9257;BME280;4665;51.368;6.782;2023-04-08T12:00:18;102202.47;;;8.85;100.00
9257;BME280;4665;51.368;6.782;2023-04-08T12:02:44;102207.69;;;8.87;100.00
9257;BME280;4665;51.368;6.782;2023-04-08T12:05:10;102203.22;;;8.74;100.00
9257;BME280;4665;51.368;6.782;2023-04-08T12:07:36;102219.66;;;8.79;100.00
9257;BME280;4665;51.368;6.782;2023-04-08T12:10:01;102214.03;;;8.84;100.00
9257;BME280;4665;51.368;6.782;2023-04-08T12:12:27;102214.69;;;8.88;100.00
9257;BME280;4665;51.368;6.782;2023-04-08T12:14:52;102213.28;;;8.95;100.00
9257;BME280;4665;51.368;6.782;2023-04-08T12:17:18;102214.53;;;9.02;100.00
9257;BME280;4665;51.368;6.782;2023-04-08T12:19:43;102218.47;;;9.09;100.00
9257;BME280;4665;51.368;6.782;2023-04-08T12:22:09;102224.94;;;9.18;100.00
9257;BME280;4665;51.368;6.782;2023-04-08T12:24:34;102222.34;;;9.29;100.00
9257;BME280;4665;51.368;6.782;2023-04-08T12:27:00;102220.44;;;9.31;100.00
9257;BME280;4665;51.368;6.782;2023-04-08T12:29:26;102225.09;;;9.40;100.00
9257;BME280;4665;51.368;6.782;2023-04-08T12:31:52;102216.03;;;9.43;100.00
9257;BME280;4665;51.368;6.782;2023-04-08T12:34:17;102216.09;;;9.54;100.00
9257;BME280;4665;51.368;6.782;2023-04-08T12:36:45;102217.78;;;9.55;100.00
9257;BME280;4665;51.368;6.782;2023-04-08T12:39:11;102221.81;;;9.61;100.00
9257;BME280;4665;51.368;6.782;2023-04-08T12:41:37;102216.59;;;9.59;100.00
9257;BME280;4665;51.368;6.782;2023-04-08T12:44:02;102215.63;;;9.60;100.00
9257;BME280;4665;51.368;6.782;2023-04-08T12:46:28;102213.50;;;9.65;100.00
9257;BME280;4665;51.368;6.782;2023-04-08T12:48:53;102213.25;;;9.68;100.00
9257;BME280;4665;51.368;6.782;2023-04-08T12:51:19;102223.44;;;9.75;100.00
9257;BME280;4665;51.368;6.782;2023-04-08T12:53:44;102211.09;;;9.74;100.00
9257;BME280;4665;51.368;6.782;2023-04-08T12:56:10;102213.53;;;9.77;100.00
9257;BME280;4665;51.368;6.782;2023-04-08T12:58:35;102213.53;;;9.77;100.00
9257;BME280;4665;51.368;6.782;2023-04-08T13:01:01;102213.31;;;9.80;100.00
9257;BME280;4665;51.368;6.782;2023-04-08T13:03:26;102208.09;;;9.78;100.00
9257;BME280;4665;51.368;6.782;2023-04-08T13:05:54;102209.69;;;9.81;100.00
9257;BME280;4665;51.368;6.782;2023-04-08T13:08:20;102200.94;;;9.79;100.00
9257;BME280;4665;51.368;6.782;2023-04-08T13:10:46;102207.91;;;9.93;100.00
9257;BME280;4665;51.368;6.782;2023-04-08T13:13:12;102211.25;;;10.07;100.00
9257;BME280;4665;51.368;6.782;2023-04-08T13:15:38;102213.16;;;10.05;100.00
9257;BME280;4665;51.368;6.782;2023-04-08T13:18:08;102202.22;;;9.97;100.00
9257;BME280;4665;51.368;6.782;2023-04-08T13:20:34;102200.53;;;9.96;100.00
9257;BME280;4665;51.368;6.782;2023-04-08T13:22:59;102205.03;;;9.96;100.00
9257;BME280;4665;51.368;6.782;2023-04-08T13:25:25;102212.28;;;9.94;100.00
9257;BME280;4665;51.368;6.782;2023-04-08T13:27:51;102208.63;;;9.95;100.00
9257;BME280;4665;51.368;6.782;2023-04-08T13:30:16;102198.34;;;9.90;100.00
9257;BME280;4665;51.368;6.782;2023-04-08T13:32:42;102202.47;;;9.94;100.00
9257;BME280;4665;51.368;6.782;2023-04-08T13:35:08;102200.06;;;10.02;100.00
9257;BME280;4665;51.368;6.782;2023-04-08T13:37:33;102196.09;;;10.08;100.00